sensor_id;sensor_type;location;lat;lon;timestamp;P1;durP1;ratioP1;P2;durP2;ratioP2
53939;SDS011;39850;43.324;21.916;2022-07-03T00:30:53;11.0;;;10.0;;
53939;SDS011;39850;43.324;21.916;2022-07-03T00:35:36;11.0;;;10.0;;
53939;SDS011;39850;43.324;21.916;2022-07-03T00:40:15;11.0;;;10.0;;
53939;SDS011;39850;43.324;21.916;2022-07-03T00:44:57;11.0;;;10.0;;
53939;SDS011;39850;43.324;21.916;2022-07-03T00:49:40;11.0;;;10.0;;
53939;SDS011;39850;43.324;21.916;2022-07-03T00:54:23;11.0;;;10.0;;
53939;SDS011;39850;43.324;21.916;2022-07-03T00:59:02;11.0;;;10.0;;
53939;SDS011;39850;43.324;21.916;2022-07-03T01:03:45;11.0;;;10.0;;
53939;SDS011;39850;43.324;21.916;2022-07-03T01:08:43;11.0;;;10.0;;
53939;SDS011;39850;43.324;21.916;2022-07-03T01:14:08;11.0;;;10.0;;
53939;SDS011;39850;43.324;21.916;2022-07-03T01:49:19;15.0;;;14.0;;
53939;SDS011;39850;43.324;21.916;2022-07-03T01:54:02;15.0;;;14.0;;
53939;SDS011;39850;43.324;21.916;2022-07-03T01:58:40;14.0;;;14.0;;
53939;SDS011;39850;43.324;21.916;2022-07-03T02:03:28;14.0;;;14.0;;
53939;SDS011;39850;43.324;21.916;2022-07-03T02:08:43;13.0;;;13.0;;
53939;SDS011;39850;43.324;21.916;2022-07-03T02:13:34;13.0;;;13.0;;
53939;SDS011;39850;43.324;21.916;2022-07-03T02:18:32;13.0;;;12.0;;
53939;SDS011;39850;43.324;21.916;2022-07-03T02:23:19;13.0;;;12.0;;
53939;SDS011;39850;43.324;21.916;2022-07-03T02:28:32;13.0;;;12.0;;
53939;SDS011;39850;43.324;21.916;2022-07-03T02:33:43;13.0;;;12.0;;
53939;SDS011;39850;43.324;21.916;2022-07-03T03:09:02;11.0;;;10.0;;
53939;SDS011;39850;43.324;21.916;2022-07-03T03:13:56;11.0;;;10.0;;
53939;SDS011;39850;43.324;21.916;2022-07-03T03:18:40;11.0;;;10.0;;
53939;SDS011;39850;43.324;21.916;2022-07-03T03:23:43;11.0;;;10.0;;
53939;SDS011;39850;43.324;21.916;2022-07-03T03:28:23;11.0;;;10.0;;
53939;SDS011;39850;43.324;21.916;2022-07-03T03:32:59;11.0;;;10.0;;
53939;SDS011;39850;43.324;21.916;2022-07-03T03:37:36;11.0;;;10.0;;
53939;SDS011;39850;43.324;21.916;2022-07-03T03:42:13;10.0;;;10.0;;
53939;SDS011;39850;43.324;21.916;2022-07-03T03:46:50;10.0;;;10.0;;
53939;SDS011;39850;43.324;21.916;2022-07-03T03:51:27;10.0;;;10.0;;
53939;SDS011;39850;43.324;21.916;2022-07-03T03:56:09;10.0;;;10.0;;
53939;SDS011;39850;43.324;21.916;2022-07-03T04:33:02;10.0;;;9.0;;
53939;SDS011;39850;43.324;21.916;2022-07-03T04:37:38;10.0;;;9.0;;
53939;SDS011;39850;43.324;21.916;2022-07-03T04:42:14;10.0;;;9.0;;
53939;SDS011;39850;43.324;21.916;2022-07-03T04:46:50;10.0;;;9.0;;
53939;SDS011;39850;43.324;21.916;2022-07-03T04:51:26;10.0;;;9.0;;
53939;SDS011;39850;43.324;21.916;2022-07-03T04:56:04;10.0;;;9.0;;
53939;SDS011;39850;43.324;21.916;2022-07-03T05:00:43;10.0;;;9.0;;
53939;SDS011;39850;43.324;21.916;2022-07-03T05:05:20;10.0;;;9.0;;
53939;SDS011;39850;43.324;21.916;2022-07-03T05:09:57;11.0;;;9.0;;
53939;SDS011;39850;43.324;21.916;2022-07-03T05:14:33;11.0;;;9.0;;
53939;SDS011;39850;43.324;21.916;2022-07-03T05:51:21;9.0;;;8.0;;
53939;SDS011;39850;43.324;21.916;2022-07-03T05:55:58;9.0;;;8.0;;
53939;SDS011;39850;43.324;21.916;2022-07-03T06:00:35;9.0;;;8.0;;
53939;SDS011;39850;43.324;21.916;2022-07-03T06:05:11;9.0;;;8.0;;
53939;SDS011;39850;43.324;21.916;2022-07-03T06:09:47;9.0;;;8.0;;
53939;SDS011;39850;43.324;21.916;2022-07-03T06:14:24;9.0;;;8.0;;
53939;SDS011;39850;43.324;21.916;2022-07-03T06:19:00;9.0;;;8.0;;
53939;SDS011;39850;43.324;21.916;2022-07-03T06:23:37;9.0;;;8.0;;
53939;SDS011;39850;43.324;21.916;2022-07-03T06:28:13;9.0;;;8.0;;
53939;SDS011;39850;43.324;21.916;2022-07-03T06:32:49;9.0;;;8.0;;
53939;SDS011;39850;43.324;21.916;2022-07-03T06:37:26;9.0;;;8.0;;
53939;SDS011;39850;43.324;21.916;2022-07-03T07:09:44;17.0;;;17.0;;
53939;SDS011;39850;43.324;21.916;2022-07-03T07:14:21;17.0;;;17.0;;
53939;SDS011;39850;43.324;21.916;2022-07-03T07:18:57;17.0;;;17.0;;
53939;SDS011;39850;43.324;21.916;2022-07-03T07:23:34;18.0;;;19.0;;
53939;SDS011;39850;43.324;21.916;2022-07-03T07:28:11;18.0;;;19.0;;
53939;SDS011;39850;43.324;21.916;2022-07-03T07:32:48;17.0;;;17.0;;
53939;SDS011;39850;43.324;21.916;2022-07-03T07:37:24;17.0;;;17.0;;
53939;SDS011;39850;43.324;21.916;2022-07-03T07:42:01;16.0;;;16.0;;
53939;SDS011;39850;43.324;21.916;2022-07-03T07:46:37;16.0;;;16.0;;
53939;SDS011;39850;43.324;21.916;2022-07-03T07:51:14;11.0;;;11.0;;
53939;SDS011;39850;43.324;21.916;2022-07-03T07:55:50;11.0;;;11.0;;
53939;SDS011;39850;43.324;21.916;2022-07-03T08:32:42;11.0;;;10.0;;
53939;SDS011;39850;43.324;21.916;2022-07-03T08:37:19;11.0;;;10.0;;
53939;SDS011;39850;43.324;21.916;2022-07-03T08:41:59;11.0;;;10.0;;
53939;SDS011;39850;43.324;21.916;2022-07-03T08:46:40;11.0;;;10.0;;
53939;SDS011;39850;43.324;21.916;2022-07-03T08:51:20;11.0;;;10.0;;
53939;SDS011;39850;43.324;21.916;2022-07-03T08:56:00;11.0;;;10.0;;
53939;SDS011;39850;43.324;21.916;2022-07-03T09:00:41;11.0;;;10.0;;
53939;SDS011;39850;43.324;21.916;2022-07-03T09:05:18;11.0;;;10.0;;
53939;SDS011;39850;43.324;21.916;2022-07-03T09:09:55;11.0;;;10.0;;
53939;SDS011;39850;43.324;21.916;2022-07-03T09:14:33;11.0;;;10.0;;
53939;SDS011;39850;43.324;21.916;2022-07-03T09:19:10;11.0;;;10.0;;
53939;SDS011;39850;43.324;21.916;2022-07-03T09:52:02;10.0;;;9.0;;
53939;SDS011;39850;43.324;21.916;2022-07-03T09:56:39;10.0;;;9.0;;
53939;SDS011;39850;43.324;21.916;2022-07-03T10:01:18;11.0;;;9.0;;
53939;SDS011;39850;43.324;21.916;2022-07-03T10:06:04;11.0;;;9.0;;
53939;SDS011;39850;43.324;21.916;2022-07-03T10:10:48;10.0;;;9.0;;
53939;SDS011;39850;43.324;21.916;2022-07-03T10:15:33;10.0;;;9.0;;
53939;SDS011;39850;43.324;21.916;2022-07-03T10:20:26;11.0;;;9.0;;
53939;SDS011;39850;43.324;21.916;2022-07-03T10:25:09;11.0;;;9.0;;
53939;SDS011;39850;43.324;21.916;2022-07-03T10:29:52;10.0;;;9.0;;
53939;SDS011;39850;43.324;21.916;2022-07-03T10:34:33;10.0;;;9.0;;
53939;SDS011;39850;43.324;21.916;2022-07-03T10:39:33;10.0;;;9.0;;
53939;SDS011;39850;43.324;21.916;2022-07-03T11:12:09;12.0;;;10.0;;
53939;SDS011;39850;43.324;21.916;2022-07-03T11:16:47;12.0;;;10.0;;
53939;SDS011;39850;43.324;21.916;2022-07-03T11:21:48;12.0;;;10.0;;
53939;SDS011;39850;43.324;21.916;2022-07-03T11:26:36;12.0;;;10.0;;
53939;SDS011;39850;43.324;21.916;2022-07-03T11:31:22;11.0;;;10.0;;
53939;SDS011;39850;43.324;21.916;2022-07-03T11:35:59;11.0;;;10.0;;
53939;SDS011;39850;43.324;21.916;2022-07-03T11:40:43;11.0;;;10.0;;
53939;SDS011;39850;43.324;21.916;2022-07-03T11:45:29;11.0;;;10.0;;
53939;SDS011;39850;43.324;21.916;2022-07-03T11:50:08;11.0;;;10.0;;
53939;SDS011;39850;43.324;21.916;2022-07-03T11:54:52;11.0;;;10.0;;
53939;SDS011;39850;43.324;21.916;2022-07-03T11:59:29;11.0;;;10.0;;
53939;SDS011;39850;43.324;21.916;2022-07-03T12:32:00;11.0;;;9.0;;
53939;SDS011;39850;43.324;21.916;2022-07-03T12:36:59;11.0;;;9.0;;
53939;SDS011;39850;43.324;21.916;2022-07-03T12:41:36;11.0;;;10.0;;
53939;SDS011;39850;43.324;21.916;2022-07-03T12:46:25;11.0;;;10.0;;
53939;SDS011;39850;43.324;21.916;2022-07-03T12:51:08;11.0;;;10.0;;
53939;SDS011;39850;43.324;21.916;2022-07-03T12:55:45;11.0;;;10.0;;
53939;SDS011;39850;43.324;21.916;2022-07-03T13:00:22;11.0;;;10.0;;
53939;SDS011;39850;43.324;21.916;2022-07-03T13:05:00;11.0;;;10.0;;
53939;SDS011;39850;43.324;21.916;2022-07-03T13:09:53;11.0;;;10.0;;
53939;SDS011;39850;43.324;21.916;2022-07-03T13:14:30;11.0;;;10.0;;
53939;SDS011;39850;43.324;21.916;2022-07-03T13:19:12;11.0;;;10.0;;
53939;SDS011;39850;43.324;21.916;2022-07-03T13:51:31;10.0;;;9.0;;
53939;SDS011;39850;43.324;21.916;2022-07-03T13:56:08;10.0;;;9.0;;
53939;SDS011;39850;43.324;21.916;2022-07-03T14:00:44;12.0;;;10.0;;
53939;SDS011;39850;43.324;21.916;2022-07-03T14:05:20;12.0;;;10.0;;
53939;SDS011;39850;43.324;21.916;2022-07-03T14:09:56;12.0;;;10.0;;
53939;SDS011;39850;43.324;21.916;2022-07-03T14:14:33;11.0;;;10.0;;
53939;SDS011;39850;43.324;21.916;2022-07-03T14:19:09;11.0;;;10.0;;
53939;SDS011;39850;43.324;21.916;2022-07-03T14:23:45;12.0;;;11.0;;
53939;SDS011;39850;43.324;21.916;2022-07-03T14:28:21;12.0;;;11.0;;
53939;SDS011;39850;43.324;21.916;2022-07-03T14:32:58;11.0;;;10.0;;
53939;SDS011;39850;43.324;21.916;2022-07-03T14:37:35;11.0;;;10.0;;
53939;SDS011;39850;43.324;21.916;2022-07-03T15:14:53;10.0;;;9.0;;
53939;SDS011;39850;43.324;21.916;2022-07-03T15:19:35;10.0;;;9.0;;
53939;SDS011;39850;43.324;21.916;2022-07-03T15:24:13;10.0;;;9.0;;
53939;SDS011;39850;43.324;21.916;2022-07-03T15:28:53;10.0;;;9.0;;
53939;SDS011;39850;43.324;21.916;2022-07-03T15:33:31;10.0;;;9.0;;
53939;SDS011;39850;43.324;21.916;2022-07-03T15:38:14;10.0;;;9.0;;
53939;SDS011;39850;43.324;21.916;2022-07-03T15:43:44;10.0;;;9.0;;
53939;SDS011;39850;43.324;21.916;2022-07-03T15:49:06;10.0;;;9.0;;
53939;SDS011;39850;43.324;21.916;2022-07-03T16:32:28;10.0;;;9.0;;
53939;SDS011;39850;43.324;21.916;2022-07-03T16:37:37;10.0;;;9.0;;
53939;SDS011;39850;43.324;21.916;2022-07-03T16:42:22;10.0;;;9.0;;
53939;SDS011;39850;43.324;21.916;2022-07-03T16:47:04;10.0;;;9.0;;
53939;SDS011;39850;43.324;21.916;2022-07-03T16:51:44;10.0;;;9.0;;
53939;SDS011;39850;43.324;21.916;2022-07-03T16:56:27;10.0;;;9.0;;
53939;SDS011;39850;43.324;21.916;2022-07-03T17:01:08;10.0;;;9.0;;
53939;SDS011;39850;43.324;21.916;2022-07-03T17:05:48;10.0;;;9.0;;
53939;SDS011;39850;43.324;21.916;2022-07-03T17:10:29;10.0;;;9.0;;
53939;SDS011;39850;43.324;21.916;2022-07-03T17:15:10;11.0;;;9.0;;
53939;SDS011;39850;43.324;21.916;2022-07-03T17:19:59;11.0;;;9.0;;
53939;SDS011;39850;43.324;21.916;2022-07-03T17:53:41;12.0;;;10.0;;
53939;SDS011;39850;43.324;21.916;2022-07-03T17:58:20;12.0;;;10.0;;
53939;SDS011;39850;43.324;21.916;2022-07-03T18:02:56;12.0;;;10.0;;
53939;SDS011;39850;43.324;21.916;2022-07-03T18:08:05;12.0;;;10.0;;
53939;SDS011;39850;43.324;21.916;2022-07-03T18:13:22;11.0;;;10.0;;
53939;SDS011;39850;43.324;21.916;2022-07-03T18:18:22;11.0;;;10.0;;
53939;SDS011;39850;43.324;21.916;2022-07-03T18:23:20;11.0;;;10.0;;
53939;SDS011;39850;43.324;21.916;2022-07-03T18:28:02;11.0;;;10.0;;
53939;SDS011;39850;43.324;21.916;2022-07-03T18:32:41;11.0;;;10.0;;
53939;SDS011;39850;43.324;21.916;2022-07-03T18:37:20;11.0;;;10.0;;
53939;SDS011;39850;43.324;21.916;2022-07-03T19:15:49;12.0;;;11.0;;
53939;SDS011;39850;43.324;21.916;2022-07-03T19:20:28;12.0;;;11.0;;
53939;SDS011;39850;43.324;21.916;2022-07-03T19:25:08;12.0;;;11.0;;
53939;SDS011;39850;43.324;21.916;2022-07-03T19:29:45;12.0;;;11.0;;
53939;SDS011;39850;43.324;21.916;2022-07-03T19:34:22;12.0;;;11.0;;
53939;SDS011;39850;43.324;21.916;2022-07-03T19:38:59;12.0;;;11.0;;
53939;SDS011;39850;43.324;21.916;2022-07-03T19:43:36;14.0;;;12.0;;
53939;SDS011;39850;43.324;21.916;2022-07-03T19:48:12;14.0;;;12.0;;
53939;SDS011;39850;43.324;21.916;2022-07-03T19:52:50;15.0;;;13.0;;
53939;SDS011;39850;43.324;21.916;2022-07-03T19:57:27;15.0;;;13.0;;
53939;SDS011;39850;43.324;21.916;2022-07-03T20:34:24;12.0;;;11.0;;
53939;SDS011;39850;43.324;21.916;2022-07-03T20:39:00;12.0;;;11.0;;
53939;SDS011;39850;43.324;21.916;2022-07-03T20:43:37;12.0;;;11.0;;
53939;SDS011;39850;43.324;21.916;2022-07-03T20:48:13;12.0;;;11.0;;
53939;SDS011;39850;43.324;21.916;2022-07-03T20:52:52;12.0;;;11.0;;
53939;SDS011;39850;43.324;21.916;2022-07-03T20:57:30;12.0;;;11.0;;
